Flight Track Log - Related Links

Times and Time Zones

All times are in EDT time to prevent confusion due to time zone crossing. See the AAL448 flight status page for this flight to view local times or setup timezone preferences in your user account.

Time Position Orientation Groundspeed Altitude Reporting Facility
EDT Latitude Longitude Course Direction KTS MPH feet Rate Location/Type
Tue 01:06:15 PM 33.9361 -118.4339 59° Northeast 175 201 1,700  Level Los Angeles Center
Tue 01:07:17 PM 33.9167 -118.5122 253° West 242 278 3,600 2,323 Climbing Los Angeles Center
Tue 01:08:00 PM 34.0870 -118.1494 54° Northeast  Level FlightAware Approximate
Tue 01:08:19 PM 33.8744 -118.5636 225° Southwest 269 310 6,500  Level Los Angeles Center
Tue 01:09:00 PM 34.1429 -118.0476 59° Northeast  Level FlightAware Approximate
Tue 01:09:21 PM 33.8272 -118.4839 125° Southeast 288 331 10,000  Level Los Angeles Center
Tue 01:10:00 PM 34.1952 -117.9429 59° Northeast  Level FlightAware Approximate
Tue 01:10:23 PM 33.9011 -118.4367 28° Northeast 309 356 11,600  Level Los Angeles Center
Tue 01:11:00 PM 34.2556 -117.8554 59° Northeast  Level FlightAware Approximate
Tue 01:11:25 PM 33.9758 -118.3603 40° Northeast 363 418 14,200  Level Los Angeles Center
Tue 01:12:27 PM 34.0347 -118.2525 57° Northeast 381 438 17,100 2,592 Climbing Los Angeles Center
Tue 01:13:30 PM 34.0989 -118.1414 55° Northeast 395 455 19,600 2,160 Climbing Los Angeles Center
Tue 01:14:32 PM 34.1661 -118.0225 56° Northeast 417 480 21,600 1,887 Climbing Los Angeles Center
Tue 01:15:34 PM 34.2372 -117.8953 56° Northeast 444 511 23,500 2,032 Climbing Los Angeles Center
Tue 01:16:36 PM 34.3264 -117.7353 56° Northeast 471 542 25,800 1,694 Climbing Los Angeles Center
Tue 01:17:38 PM 34.4058 -117.5933 56° Northeast 487 560 27,000 581 Climbing Los Angeles Center
Tue 01:18:40 PM 34.4831 -117.4514 57° Northeast 506 582 27,000  Level Los Angeles Center
Tue 01:19:42 PM 34.5606 -117.3114 56° Northeast 506 582 27,000  Level Los Angeles Center
Tue 01:20:44 PM 34.6406 -117.1747 55° Northeast 502 578 27,000  Level Los Angeles Center
Tue 01:21:46 PM 34.7233 -117.0392 53° Northeast 503 579 27,000 -290 Level Los Angeles Center
Tue 01:22:48 PM 34.8203 -116.8767 54° Northeast 502 578 26,400 -768 Descending Los Angeles Center
Tue 01:23:51 PM 34.8950 -116.7511 54° Northeast 475 547 25,400 -960 Descending Los Angeles Center
Tue 01:24:53 PM 34.9656 -116.6303 55° Northeast 449 517 24,400 -677 Descending Los Angeles Center
Tue 01:25:55 PM 35.0383 -116.5103 53° Northeast 444 511 24,000 -194 Descending Los Angeles Center
Tue 01:26:57 PM 35.1092 -116.3911 54° Northeast 439 505 24,000 -823 Level Los Angeles Center
Tue 01:27:59 PM 35.2106 -116.2656 45° Northeast 434 499 22,300 -1,790 Descending Los Angeles Center
Tue 01:29:01 PM 35.2956 -116.1581 46° Northeast 438 504 20,300 -1,742 Descending Los Angeles Center
Tue 01:30:03 PM 35.3769 -116.0539 46° Northeast 429 494 18,700 -1,548 Descending Los Angeles Center
Tue 01:31:05 PM 35.4575 -115.9522 46° Northeast 421 484 17,100 -1,324 Descending Los Angeles Center
Tue 01:32:19 PM 35.5336 -115.8533 47° Northeast 411 473 15,700 -1,471 Descending Los Angeles Center
Tue 01:32:47 PM 35.5869 -115.7933 42° Northeast 350 403 14,600 -1,811 Descending Los Angeles Center
Tue 01:33:12 PM 35.6156 -115.7550 47° Northeast 336 387 14,100 -1,139 Descending Los Angeles Center
Tue 01:34:06 PM 35.6658 -115.6886 47° Northeast 318 366 13,100 -833 Descending Los Angeles Center
Tue 01:34:24 PM 35.6850 -115.6672 42° Northeast 327 376 13,100 -98 Level Los Angeles Center
Tue 01:35:07 PM 35.7289 -115.6103 46° Northeast 305 351 13,000 -97 Descending Los Angeles Center
Tue 01:35:26 PM 35.7486 -115.5858 45° Northeast 312 359 13,000  Level Los Angeles Center
Tue 01:36:08 PM 35.8031 -115.5731 11° North 301 346 13,000  Level Los Angeles Center
Tue 01:36:28 PM 35.8300 -115.5703 North 302 348 13,000  Level Los Angeles Center
Tue 01:37:09 PM 35.8839 -115.5683 North 274 315 13,000  Level Los Angeles Center
Tue 01:37:30 PM 35.8958 -115.5664 North 284 327 13,000 -393 Level Los Angeles Center
Tue 01:38:10 PM 35.9567 -115.5658 360° North 257 296 12,600 -968 Descending Los Angeles Center
Tue 01:38:32 PM 35.9831 -115.5614 North 257 296 12,000 -1,475 Descending Los Angeles Center
Tue 01:39:11 PM 36.0114 -115.5189 50° Northeast 257 296 11,100 -968 Descending Los Angeles Center
Tue 01:39:34 PM 36.0142 -115.4864 84° East 250 288 11,000 -100 Descending Los Angeles Center
Tue 01:40:11 PM 36.0217 -115.4358 80° East 240 276 11,000 97 Level Los Angeles Center
Tue 01:40:36 PM 36.0264 -115.4053 79° East 243 280 11,100 -295 Climbing Los Angeles Center
Tue 01:41:12 PM 36.0289 -115.3486 87° East 248 285 10,700 -677 Descending Los Angeles Center
Tue 01:41:38 PM 36.0264 -115.3197 96° East 249 287 10,400 -885 Descending Los Angeles Center
Tue 01:42:13 PM 36.0211 -115.2633 97° East 250 288 9,800 -968 Descending Los Angeles Center
Tue 01:42:40 PM 36.0206 -115.2347 91° East 250 288 9,400 -984 Descending Los Angeles Center
Tue 01:43:14 PM 36.0156 -115.1775 96° East 244 281 8,800 -774 Descending Los Angeles Center
Tue 01:43:42 PM 36.0139 -115.1517 95° East 246 283 8,600 -689 Descending Los Angeles Center
Tue 01:44:15 PM 36.0108 -115.0967 94° East 240 276 8,100 -581 Descending Los Angeles Center
Tue 01:44:44 PM 36.0089 -115.0708 95° East 240 276 8,000 -627 Descending Los Angeles Center
Tue 01:45:22 PM 36.0067 -115.0183 93° East 196 226 7,400 -952 Descending Los Angeles Center
Tue 01:45:47 PM 36.0053 -114.9892 93° East 211 243 7,000 -960 Descending Los Angeles Center

Login

Don't have an account? Register now (free) for customized features, flight alerts, and more!